createdAt,value
2023-06-25T00:00:21.373Z,22.50
2023-06-25T00:02:48.214Z,22.47
2023-06-25T00:05:15.157Z,22.62
2023-06-25T00:07:41.998Z,22.67
2023-06-25T00:10:08.961Z,22.87
2023-06-25T00:12:35.742Z,22.88
2023-06-25T00:15:02.500Z,23.08
2023-06-25T00:17:29.148Z,23.09
2023-06-25T00:19:59.791Z,23.16
2023-06-25T00:22:28.071Z,22.97
2023-06-25T00:24:57.617Z,23.13
2023-06-25T00:27:24.251Z,23.20
2023-06-25T00:29:50.827Z,23.31
2023-06-25T00:32:17.458Z,23.28
2023-06-25T00:34:43.977Z,23.04
2023-06-25T00:37:17.861Z,23.09
2023-06-25T00:39:48.563Z,22.89
2023-06-25T00:42:16.469Z,22.89
2023-06-25T00:44:43.720Z,22.88
2023-06-25T00:47:18.011Z,22.69
2023-06-25T00:49:46.364Z,22.40
2023-06-25T00:52:15.273Z,22.52
2023-06-25T00:54:44.352Z,22.52
2023-06-25T00:57:11.830Z,22.60
2023-06-25T00:59:44.320Z,22.63
2023-06-25T01:03:01.483Z,22.49
2023-06-25T01:05:40.079Z,22.47
2023-06-25T01:08:10.449Z,22.50
2023-06-25T01:10:38.603Z,22.36
2023-06-25T01:13:06.275Z,22.36
2023-06-25T01:15:33.148Z,22.34
2023-06-25T01:18:02.161Z,22.39
2023-06-25T01:20:29.031Z,22.29
2023-06-25T01:22:56.834Z,22.21
2023-06-25T01:25:26.245Z,22.29
2023-06-25T01:27:52.857Z,22.04
2023-06-25T01:30:21.561Z,22.09
2023-06-25T01:32:48.484Z,22.12
2023-06-25T01:35:16.212Z,22.06
2023-06-25T01:37:42.768Z,21.97
2023-06-25T01:40:15.521Z,21.83
2023-06-25T01:42:42.277Z,21.79
2023-06-25T01:45:10.025Z,21.96
2023-06-25T01:47:43.877Z,21.85
2023-06-25T01:50:10.605Z,22.04
2023-06-25T01:52:37.157Z,22.27
2023-06-25T01:55:04.096Z,22.27
2023-06-25T01:57:33.806Z,22.05
2023-06-25T02:00:00.374Z,22.22
2023-06-25T02:02:26.939Z,22.06
2023-06-25T02:04:56.812Z,22.07
2023-06-25T02:07:23.368Z,22.07
2023-06-25T02:09:49.893Z,22.00
2023-06-25T02:12:16.535Z,22.06
2023-06-25T02:14:45.905Z,22.05
2023-06-25T02:17:12.481Z,22.01
2023-06-25T02:19:39.112Z,21.80
2023-06-25T02:22:06.079Z,21.83
2023-06-25T02:24:32.699Z,21.99
2023-06-25T02:26:59.358Z,21.93
2023-06-25T02:29:25.998Z,21.73
2023-06-25T02:31:52.833Z,21.67
2023-06-25T02:34:19.389Z,22.05
2023-06-25T02:36:46.112Z,21.98
2023-06-25T02:39:12.691Z,21.76
2023-06-25T02:41:42.280Z,21.77
2023-06-25T02:44:08.912Z,21.27
2023-06-25T02:46:36.714Z,21.33
2023-06-25T02:49:04.299Z,21.35
2023-06-25T02:51:33.679Z,21.27
2023-06-25T02:54:00.204Z,21.26
2023-06-25T02:56:26.763Z,21.12
2023-06-25T02:58:53.316Z,21.03
2023-06-25T03:01:19.844Z,20.71
2023-06-25T03:03:46.380Z,20.97
2023-06-25T03:06:12.953Z,20.81
2023-06-25T03:08:39.625Z,20.87
2023-06-25T03:11:06.233Z,20.78
2023-06-25T03:13:32.768Z,20.96
2023-06-25T03:15:59.280Z,21.04
2023-06-25T03:18:28.602Z,20.76
2023-06-25T03:20:55.166Z,20.70
2023-06-25T03:23:21.684Z,20.73
2023-06-25T03:25:48.255Z,20.66
2023-06-25T03:28:14.940Z,20.77
2023-06-25T03:30:44.219Z,20.67
2023-06-25T03:33:10.822Z,20.89
2023-06-25T03:35:37.598Z,20.67
2023-06-25T03:38:07.500Z,20.60
2023-06-25T03:40:34.154Z,20.11
2023-06-25T03:43:00.677Z,20.44
2023-06-25T03:45:30.161Z,20.14
2023-06-25T03:47:56.747Z,20.33
2023-06-25T03:50:23.419Z,20.41
2023-06-25T03:52:49.923Z,20.29
2023-06-25T03:55:16.437Z,20.44
2023-06-25T03:57:43.621Z,20.52
2023-06-25T04:00:10.705Z,20.55
2023-06-25T04:02:37.250Z,20.49
2023-06-25T04:05:03.861Z,20.51
2023-06-25T04:07:30.471Z,20.56
2023-06-25T04:09:57.006Z,20.44
2023-06-25T04:12:23.524Z,20.67
2023-06-25T04:14:50.134Z,20.84
2023-06-25T04:17:16.643Z,20.44
2023-06-25T04:19:43.792Z,20.82
2023-06-25T04:22:10.372Z,20.93
2023-06-25T04:24:36.886Z,21.14
2023-06-25T04:27:03.665Z,21.15
2023-06-25T04:29:30.257Z,21.17
2023-06-25T04:31:56.854Z,21.34
2023-06-25T04:34:23.813Z,21.59
2023-06-25T04:36:50.426Z,21.80
2023-06-25T04:39:17.152Z,21.83
2023-06-25T04:41:43.942Z,21.98
2023-06-25T04:44:10.493Z,22.15
2023-06-25T04:46:37.139Z,22.43
2023-06-25T04:49:03.733Z,22.51
2023-06-25T04:51:30.269Z,22.67
2023-06-25T04:53:56.738Z,22.66
2023-06-25T04:56:23.341Z,22.73
2023-06-25T04:58:50.455Z,22.94
2023-06-25T05:01:17.064Z,22.91
2023-06-25T05:03:43.668Z,22.95
2023-06-25T05:06:10.561Z,22.75
2023-06-25T05:08:37.410Z,22.74
2023-06-25T05:11:06.655Z,22.80
2023-06-25T05:13:33.431Z,22.42
2023-06-25T05:15:59.909Z,22.49
2023-06-25T05:18:26.526Z,23.10
2023-06-25T05:20:53.121Z,23.05
2023-06-25T05:23:20.204Z,23.10
2023-06-25T05:25:47.526Z,23.38
2023-06-25T05:28:14.253Z,23.70
2023-06-25T05:30:40.758Z,23.90
2023-06-25T05:33:07.419Z,23.63
2023-06-25T05:35:37.291Z,23.86
2023-06-25T05:38:04.100Z,23.78
2023-06-25T05:40:30.616Z,23.84
2023-06-25T05:42:57.156Z,23.92
2023-06-25T05:45:23.807Z,24.19
2023-06-25T05:47:50.890Z,23.91
2023-06-25T05:50:17.696Z,24.29
2023-06-25T05:52:45.076Z,23.94
2023-06-25T05:55:13.482Z,24.03
2023-06-25T05:57:40.329Z,24.45
2023-06-25T06:00:07.997Z,24.07
2023-06-25T06:02:34.537Z,24.62
2023-06-25T06:05:04.954Z,24.52
2023-06-25T06:07:31.581Z,24.20
2023-06-25T06:09:59.909Z,24.05
2023-06-25T06:12:26.653Z,24.66
2023-06-25T06:14:53.186Z,24.50
2023-06-25T06:17:19.783Z,24.30
2023-06-25T06:19:46.294Z,24.28
2023-06-25T06:22:14.144Z,24.53
2023-06-25T06:24:41.145Z,23.95
2023-06-25T06:27:08.361Z,24.69
2023-06-25T06:29:34.941Z,25.02
2023-06-25T06:32:01.755Z,24.43
2023-06-25T06:34:28.265Z,25.08
2023-06-25T06:36:54.918Z,24.97
2023-06-25T06:39:21.457Z,24.98
2023-06-25T06:41:48.388Z,24.85
2023-06-25T06:44:17.089Z,24.93
2023-06-25T06:46:45.034Z,24.99
2023-06-25T06:49:12.205Z,24.94
2023-06-25T06:51:44.479Z,24.89
2023-06-25T06:54:11.073Z,25.47
2023-06-25T06:56:38.711Z,25.50
2023-06-25T06:59:05.301Z,25.44
2023-06-25T07:01:32.473Z,25.54
2023-06-25T07:03:59.595Z,25.58
2023-06-25T07:06:26.197Z,25.83
2023-06-25T07:08:52.831Z,26.14
2023-06-25T07:11:19.861Z,25.81
2023-06-25T07:13:48.165Z,26.19
2023-06-25T07:16:14.897Z,25.46
2023-06-25T07:18:41.477Z,26.29
2023-06-25T07:21:08.281Z,25.62
2023-06-25T07:23:36.805Z,26.43
2023-06-25T07:26:04.626Z,26.21
2023-06-25T07:28:31.475Z,26.32
2023-06-25T07:30:58.509Z,26.27
2023-06-25T07:33:24.993Z,26.20
2023-06-25T07:35:51.551Z,26.20
2023-06-25T07:38:18.484Z,26.56
2023-06-25T07:40:48.252Z,26.20
2023-06-25T07:43:15.038Z,26.37
2023-06-25T07:45:41.963Z,26.42
2023-06-25T07:48:08.593Z,26.68
2023-06-25T07:50:38.474Z,26.78
2023-06-25T07:53:05.014Z,26.89
2023-06-25T07:55:32.680Z,26.91
2023-06-25T07:57:59.259Z,27.38
2023-06-25T08:00:25.866Z,27.52
2023-06-25T08:02:52.489Z,26.92
2023-06-25T08:05:20.918Z,26.88
2023-06-25T08:07:49.936Z,26.95
2023-06-25T08:10:16.547Z,26.82
2023-06-25T08:12:43.276Z,27.54
2023-06-25T08:15:10.254Z,26.94
2023-06-25T08:17:36.856Z,27.90
2023-06-25T08:20:03.721Z,27.75
2023-06-25T08:22:30.248Z,27.32
2023-06-25T08:24:56.794Z,27.89
2023-06-25T08:27:23.419Z,28.15
2023-06-25T08:29:49.996Z,27.93
2023-06-25T08:32:16.663Z,27.94
2023-06-25T08:34:46.142Z,28.45
2023-06-25T08:37:12.850Z,27.73
2023-06-25T08:39:39.410Z,28.14
2023-06-25T08:42:06.600Z,28.45
2023-06-25T08:44:34.990Z,28.69
2023-06-25T08:47:02.423Z,28.36
2023-06-25T08:49:40.939Z,28.85
2023-06-25T08:52:10.049Z,28.57
2023-06-25T08:54:36.936Z,28.47
2023-06-25T08:57:03.581Z,28.89
2023-06-25T08:59:30.043Z,28.79
2023-06-25T09:01:56.755Z,29.20
2023-06-25T09:04:23.991Z,28.48
2023-06-25T09:07:03.871Z,28.13
2023-06-25T09:09:31.326Z,28.78
2023-06-25T09:12:02.496Z,29.13
2023-06-25T09:14:31.629Z,28.69
2023-06-25T09:16:59.094Z,28.96
2023-06-25T09:19:25.756Z,29.32
2023-06-25T09:21:52.384Z,29.40
2023-06-25T09:24:22.612Z,29.32
2023-06-25T09:26:52.997Z,28.91
2023-06-25T09:29:21.569Z,29.42
2023-06-25T09:31:50.049Z,29.16
2023-06-25T09:34:20.350Z,29.70
2023-06-25T09:36:49.663Z,29.83
2023-06-25T09:39:16.516Z,30.15
2023-06-25T09:41:43.622Z,29.54
2023-06-25T09:44:11.464Z,29.73
2023-06-25T09:46:40.283Z,30.09
2023-06-25T09:49:10.238Z,30.36
2023-06-25T09:52:04.295Z,30.47
2023-06-25T09:54:32.501Z,30.38
2023-06-25T09:57:05.040Z,30.45
2023-06-25T09:59:32.253Z,30.12
2023-06-25T10:01:58.827Z,30.66
2023-06-25T10:04:25.518Z,30.13
2023-06-25T10:06:52.683Z,30.28
2023-06-25T10:09:19.461Z,30.09
2023-06-25T10:11:58.882Z,30.52
2023-06-25T10:14:26.111Z,30.28
2023-06-25T10:16:54.851Z,30.47
2023-06-25T10:19:24.064Z,30.98
2023-06-25T10:22:14.805Z,30.68
2023-06-25T10:24:43.247Z,30.28
2023-06-25T10:27:21.718Z,31.04
2023-06-25T10:29:48.732Z,31.47
2023-06-25T10:32:19.762Z,31.18
2023-06-25T10:34:56.416Z,31.67
2023-06-25T10:37:29.370Z,31.66
2023-06-25T10:40:03.221Z,31.51
2023-06-25T10:42:37.777Z,31.43
2023-06-25T10:45:05.544Z,31.12
2023-06-25T10:47:32.214Z,31.33
2023-06-25T10:50:02.955Z,30.96
2023-06-25T10:52:29.876Z,31.40
2023-06-25T10:54:56.934Z,31.48
2023-06-25T10:57:23.872Z,31.82
2023-06-25T10:59:51.550Z,31.18
2023-06-25T11:02:23.097Z,31.69
2023-06-25T11:04:53.164Z,31.87
2023-06-25T11:07:21.124Z,32.02
2023-06-25T11:10:01.237Z,31.87
2023-06-25T11:12:31.109Z,31.73
2023-06-25T11:14:59.873Z,31.68
2023-06-25T11:17:27.266Z,31.85
2023-06-25T11:19:55.670Z,32.05
2023-06-25T11:22:22.428Z,32.04
2023-06-25T11:24:50.732Z,32.17
2023-06-25T11:27:29.149Z,32.58
2023-06-25T11:29:55.824Z,32.44
2023-06-25T11:32:24.870Z,32.62
2023-06-25T11:34:54.270Z,32.29
2023-06-25T11:37:21.751Z,32.62
2023-06-25T11:39:50.741Z,32.81
2023-06-25T11:42:18.983Z,32.05
2023-06-25T11:44:46.504Z,32.83
2023-06-25T11:47:18.931Z,32.33
2023-06-25T11:49:56.457Z,32.41
2023-06-25T11:52:23.626Z,32.49
2023-06-25T11:54:50.388Z,32.58
2023-06-25T11:57:19.272Z,32.97
2023-06-25T11:59:45.893Z,32.78
2023-06-25T12:02:13.124Z,33.61
2023-06-25T12:04:39.915Z,33.79
2023-06-25T12:07:07.158Z,33.50
2023-06-25T12:09:35.536Z,33.58
2023-06-25T12:12:02.809Z,33.48
2023-06-25T12:14:29.361Z,33.81
2023-06-25T12:16:55.982Z,33.75
2023-06-25T12:19:22.707Z,33.84
2023-06-25T12:21:49.363Z,33.46
2023-06-25T12:24:15.878Z,33.51
2023-06-25T12:26:42.800Z,33.77
2023-06-25T12:29:10.381Z,33.82
2023-06-25T12:31:38.191Z,33.70
2023-06-25T12:34:04.857Z,33.99
2023-06-25T12:36:32.245Z,34.00
2023-06-25T12:39:01.292Z,33.77
2023-06-25T12:41:28.356Z,33.44
2023-06-25T12:43:55.700Z,34.13
2023-06-25T12:46:22.468Z,34.30
2023-06-25T12:48:49.187Z,34.74
2023-06-25T12:51:15.910Z,34.43
2023-06-25T12:53:43.259Z,34.33
2023-06-25T12:56:09.848Z,33.44
2023-06-25T12:58:36.708Z,34.70
2023-06-25T13:01:08.059Z,34.94
2023-06-25T13:03:35.619Z,34.94
2023-06-25T13:06:02.435Z,34.85
2023-06-25T13:08:29.153Z,35.03
2023-06-25T13:10:56.437Z,34.93
2023-06-25T13:13:23.155Z,35.06
2023-06-25T13:15:50.167Z,35.49
2023-06-25T13:18:16.700Z,35.41
2023-06-25T13:20:43.463Z,34.76
2023-06-25T13:23:10.215Z,34.31
2023-06-25T13:25:40.741Z,34.19
2023-06-25T13:28:07.582Z,34.99
2023-06-25T13:30:34.526Z,35.48
2023-06-25T13:33:01.834Z,35.72
2023-06-25T13:35:28.631Z,35.66
2023-06-25T13:37:55.533Z,35.92
2023-06-25T13:40:22.146Z,36.37
2023-06-25T13:42:48.696Z,36.37
2023-06-25T13:45:16.641Z,35.44
2023-06-25T13:47:43.470Z,34.34
2023-06-25T13:50:10.669Z,35.75
2023-06-25T13:52:38.217Z,35.96
2023-06-25T13:55:05.497Z,35.16
2023-06-25T13:57:32.238Z,36.65
2023-06-25T13:59:58.759Z,36.76
2023-06-25T14:02:25.686Z,35.41
2023-06-25T14:04:52.923Z,35.43
2023-06-25T14:07:19.965Z,35.02
2023-06-25T14:09:46.688Z,34.95
2023-06-25T14:12:13.255Z,35.59
2023-06-25T14:14:39.922Z,35.87
2023-06-25T14:17:08.052Z,35.29
2023-06-25T14:19:34.788Z,36.02
2023-06-25T14:22:01.752Z,35.23
2023-06-25T14:24:28.397Z,35.40
2023-06-25T14:26:55.023Z,36.53
2023-06-25T14:29:21.877Z,36.35
2023-06-25T14:31:48.551Z,38.34
2023-06-25T14:34:15.059Z,38.70
2023-06-25T14:36:41.573Z,42.71
2023-06-25T14:39:11.266Z,44.42
2023-06-25T14:41:37.731Z,41.49
2023-06-25T14:44:04.388Z,40.67
2023-06-25T14:46:31.337Z,40.96
2023-06-25T14:49:00.272Z,45.59
2023-06-25T14:51:27.855Z,44.16
2023-06-25T14:53:54.719Z,43.87
2023-06-25T14:56:21.196Z,41.11
2023-06-25T14:58:47.844Z,44.92
2023-06-25T15:01:15.351Z,42.47
2023-06-25T15:03:42.007Z,40.06
2023-06-25T15:06:27.066Z,42.39
2023-06-25T15:09:04.103Z,47.69
2023-06-25T15:11:39.500Z,46.59
2023-06-25T15:14:06.243Z,43.35
2023-06-25T15:16:32.661Z,41.80
2023-06-25T15:18:59.108Z,42.99
2023-06-25T15:21:25.730Z,41.64
2023-06-25T15:23:55.142Z,45.24
2023-06-25T15:26:21.660Z,48.96
2023-06-25T15:28:48.333Z,48.78
2023-06-25T15:31:14.736Z,50.54
2023-06-25T15:33:41.318Z,47.18
2023-06-25T15:36:08.203Z,44.48
2023-06-25T15:38:35.715Z,42.67
2023-06-25T15:41:02.323Z,41.70
2023-06-25T15:43:29.070Z,42.57
2023-06-25T15:45:55.669Z,42.59
2023-06-25T15:48:22.031Z,42.84
2023-06-25T15:50:48.730Z,43.22
2023-06-25T15:53:16.301Z,43.93
2023-06-25T15:55:44.641Z,43.30
2023-06-25T15:58:11.194Z,46.35
2023-06-25T16:00:38.954Z,44.78
2023-06-25T16:03:07.008Z,49.08
2023-06-25T16:05:36.752Z,49.06
2023-06-25T16:08:03.580Z,47.94
2023-06-25T16:10:30.072Z,47.38
2023-06-25T16:12:57.170Z,48.76
2023-06-25T16:15:24.135Z,48.37
2023-06-25T16:17:50.682Z,43.80
2023-06-25T16:20:17.127Z,44.20
2023-06-25T16:22:43.648Z,43.38
2023-06-25T16:25:10.695Z,44.37
2023-06-25T16:27:38.563Z,44.89
2023-06-25T16:30:06.226Z,47.07
2023-06-25T16:32:35.973Z,52.24
2023-06-25T16:35:03.064Z,48.08
2023-06-25T16:37:29.526Z,48.44
2023-06-25T16:39:59.851Z,47.93
2023-06-25T16:42:26.328Z,50.28
2023-06-25T16:44:52.745Z,51.28
2023-06-25T16:47:19.249Z,53.07
2023-06-25T16:49:46.172Z,50.65
2023-06-25T16:52:13.203Z,51.87
2023-06-25T16:54:39.647Z,52.61
2023-06-25T16:57:06.286Z,52.94
2023-06-25T16:59:32.749Z,51.26
2023-06-25T17:02:05.949Z,50.00
2023-06-25T17:04:36.858Z,51.21
2023-06-25T17:07:04.318Z,47.66
2023-06-25T17:09:30.860Z,45.60
2023-06-25T17:11:57.419Z,44.01
2023-06-25T17:14:27.348Z,41.93
2023-06-25T17:16:53.854Z,40.68
2023-06-25T17:19:21.140Z,40.11
2023-06-25T17:21:48.548Z,39.37
2023-06-25T17:24:15.449Z,39.07
2023-06-25T17:26:42.607Z,38.92
2023-06-25T17:29:09.641Z,37.22
2023-06-25T17:31:36.192Z,37.47
2023-06-25T17:34:02.739Z,37.65
2023-06-25T17:36:29.282Z,37.68
2023-06-25T17:39:00.823Z,37.22
2023-06-25T17:41:28.109Z,36.90
2023-06-25T17:43:54.995Z,36.90
2023-06-25T17:46:21.768Z,36.49
2023-06-25T17:48:48.407Z,35.99
2023-06-25T17:51:14.862Z,35.98
2023-06-25T17:53:44.277Z,36.20
2023-06-25T17:56:12.565Z,35.68
2023-06-25T17:58:39.086Z,35.70
2023-06-25T18:01:05.956Z,35.75
2023-06-25T18:03:37.831Z,35.06
2023-06-25T18:06:06.287Z,34.44
2023-06-25T18:08:33.320Z,34.35
2023-06-25T18:10:59.861Z,33.65
2023-06-25T18:13:26.250Z,34.15
2023-06-25T18:15:52.570Z,34.39
2023-06-25T18:18:20.230Z,34.86
2023-06-25T18:20:47.003Z,34.23
2023-06-25T18:23:14.878Z,34.32
2023-06-25T18:25:41.993Z,34.17
2023-06-25T18:28:08.544Z,33.84
2023-06-25T18:30:37.031Z,33.81
2023-06-25T18:33:04.621Z,33.29
2023-06-25T18:35:31.588Z,32.85
2023-06-25T18:37:58.123Z,32.90
2023-06-25T18:40:26.429Z,32.65
2023-06-25T18:42:53.312Z,32.72
2023-06-25T18:45:19.957Z,32.86
2023-06-25T18:47:46.702Z,32.80
2023-06-25T18:50:15.048Z,32.46
2023-06-25T18:52:41.817Z,32.26
2023-06-25T18:55:08.474Z,31.72
2023-06-25T18:57:34.916Z,31.54
2023-06-25T19:00:01.677Z,31.27
2023-06-25T19:02:28.666Z,31.05
2023-06-25T19:04:55.658Z,30.73
2023-06-25T19:07:22.175Z,30.92
2023-06-25T19:09:49.337Z,30.57
2023-06-25T19:12:17.594Z,30.46
2023-06-25T19:14:46.584Z,30.40
2023-06-25T19:17:15.604Z,30.28
2023-06-25T19:19:42.066Z,30.01
2023-06-25T19:22:08.571Z,30.26
2023-06-25T19:24:35.185Z,30.16
2023-06-25T19:27:01.693Z,30.04
2023-06-25T19:29:29.259Z,29.99
2023-06-25T19:31:55.694Z,29.64
2023-06-25T19:34:22.147Z,29.45
2023-06-25T19:36:50.902Z,29.30
2023-06-25T19:39:17.478Z,29.21
2023-06-25T19:41:44.020Z,29.09
2023-06-25T19:44:13.202Z,28.80
2023-06-25T19:46:40.879Z,28.66
2023-06-25T19:49:07.489Z,28.68
2023-06-25T19:51:34.094Z,28.44
2023-06-25T19:54:00.618Z,28.52
2023-06-25T19:56:28.396Z,28.36
2023-06-25T19:58:54.909Z,28.40
2023-06-25T20:01:23.745Z,28.27
2023-06-25T20:03:50.342Z,28.21
2023-06-25T20:06:16.804Z,28.24
2023-06-25T20:08:43.644Z,27.91
2023-06-25T20:11:10.110Z,28.31
2023-06-25T20:13:36.859Z,28.18
2023-06-25T20:16:03.394Z,28.26
2023-06-25T20:18:32.946Z,28.25
2023-06-25T20:21:04.038Z,28.08
2023-06-25T20:23:31.010Z,28.06
2023-06-25T20:25:59.991Z,27.79
2023-06-25T20:28:29.304Z,27.99
2023-06-25T20:30:55.834Z,27.71
2023-06-25T20:33:22.322Z,27.78
2023-06-25T20:35:48.786Z,27.61
2023-06-25T20:38:15.559Z,27.83
2023-06-25T20:40:41.985Z,28.09
2023-06-25T20:43:09.903Z,27.68
2023-06-25T20:45:36.935Z,27.70
2023-06-25T20:48:05.413Z,27.65
2023-06-25T20:50:31.836Z,27.94
2023-06-25T20:52:58.617Z,27.98
2023-06-25T20:55:25.012Z,27.87
2023-06-25T20:57:51.415Z,27.87
2023-06-25T21:00:17.789Z,27.84
2023-06-25T21:02:44.509Z,27.53
2023-06-25T21:05:11.006Z,27.91
2023-06-25T21:07:37.383Z,27.75
2023-06-25T21:10:03.873Z,27.32
2023-06-25T21:12:32.332Z,27.33
2023-06-25T21:14:59.251Z,26.94
2023-06-25T21:17:25.674Z,27.08
2023-06-25T21:19:52.178Z,27.10
2023-06-25T21:22:18.734Z,27.06
2023-06-25T21:24:45.153Z,26.77
2023-06-25T21:27:11.516Z,26.79
2023-06-25T21:29:37.981Z,26.64
2023-06-25T21:32:04.532Z,26.58
2023-06-25T21:34:30.904Z,26.26
2023-06-25T21:36:57.359Z,26.55
2023-06-25T21:39:23.770Z,26.64
2023-06-25T21:41:50.160Z,26.82
2023-06-25T21:44:16.652Z,26.47
2023-06-25T21:46:43.261Z,26.31
2023-06-25T21:49:10.465Z,26.26
2023-06-25T21:51:36.891Z,26.50
2023-06-25T21:54:03.339Z,26.36
2023-06-25T21:56:29.878Z,26.11
2023-06-25T21:58:56.303Z,25.87
2023-06-25T22:01:22.842Z,25.86
2023-06-25T22:03:49.316Z,26.18
2023-06-25T22:06:15.696Z,26.18
2023-06-25T22:08:42.080Z,26.50
2023-06-25T22:11:08.577Z,26.48
2023-06-25T22:13:35.380Z,25.97
2023-06-25T22:16:01.802Z,26.43
2023-06-25T22:18:28.284Z,26.14
2023-06-25T22:20:55.488Z,25.94
2023-06-25T22:23:21.925Z,25.83
2023-06-25T22:25:48.498Z,26.26
2023-06-25T22:28:14.903Z,26.34
2023-06-25T22:30:41.405Z,26.32
2023-06-25T22:33:07.908Z,26.40
2023-06-25T22:35:34.399Z,26.25
2023-06-25T22:38:00.743Z,25.88
2023-06-25T22:40:27.096Z,25.59
2023-06-25T22:42:53.468Z,25.93
2023-06-25T22:45:20.074Z,26.09
2023-06-25T22:47:46.557Z,25.98
2023-06-25T22:50:13.067Z,25.77
2023-06-25T22:52:40.387Z,25.89
2023-06-25T22:55:07.446Z,25.67
2023-06-25T22:57:33.843Z,25.64
2023-06-25T23:00:00.174Z,25.46
2023-06-25T23:02:27.306Z,25.38
2023-06-25T23:04:57.330Z,25.24
2023-06-25T23:07:23.889Z,25.16
2023-06-25T23:09:50.423Z,25.01
2023-06-25T23:12:16.841Z,25.14
2023-06-25T23:14:43.246Z,25.49
2023-06-25T23:17:09.646Z,25.44
2023-06-25T23:19:36.105Z,25.17
2023-06-25T23:22:06.008Z,25.01
2023-06-25T23:24:40.410Z,24.72
2023-06-25T23:27:08.069Z,24.58
2023-06-25T23:29:38.283Z,24.83
2023-06-25T23:32:05.819Z,25.13
2023-06-25T23:34:32.824Z,25.31
2023-06-25T23:36:59.913Z,25.06
2023-06-25T23:39:26.579Z,25.11
2023-06-25T23:41:55.950Z,24.85
2023-06-25T23:44:22.321Z,24.94
2023-06-25T23:46:48.841Z,25.16
2023-06-25T23:49:15.693Z,25.13
2023-06-25T23:51:42.556Z,25.03
2023-06-25T23:54:09.085Z,24.81
2023-06-25T23:56:36.295Z,24.91
2023-06-25T23:59:05.432Z,24.89
